sensor_id;sensor_type;location;lat;lon;timestamp;temperature;humidity
52555;DHT22;38455;52.710;6.502;2022-10-31T00:02:06;12.70;99.90
52555;DHT22;38455;52.710;6.502;2022-10-31T00:04:32;12.60;99.90
52555;DHT22;38455;52.710;6.502;2022-10-31T00:06:57;12.50;99.90
52555;DHT22;38455;52.710;6.502;2022-10-31T00:09:23;12.50;99.90
52555;DHT22;38455;52.710;6.502;2022-10-31T00:11:49;12.40;99.90
52555;DHT22;38455;52.710;6.502;2022-10-31T00:14:15;12.40;99.90
52555;DHT22;38455;52.710;6.502;2022-10-31T00:16:40;12.30;99.90
52555;DHT22;38455;52.710;6.502;2022-10-31T00:19:07;12.30;99.90
52555;DHT22;38455;52.710;6.502;2022-10-31T00:21:34;12.20;99.90
52555;DHT22;38455;52.710;6.502;2022-10-31T00:24:00;12.20;99.90
52555;DHT22;38455;52.710;6.502;2022-10-31T00:26:27;12.20;99.90
52555;DHT22;38455;52.710;6.502;2022-10-31T00:28:53;12.10;99.90
52555;DHT22;38455;52.710;6.502;2022-10-31T00:31:19;12.20;99.90
52555;DHT22;38455;52.710;6.502;2022-10-31T00:33:44;12.10;99.90
52555;DHT22;38455;52.710;6.502;2022-10-31T00:36:16;12.10;99.90
52555;DHT22;38455;52.710;6.502;2022-10-31T00:38:42;12.00;99.90
52555;DHT22;38455;52.710;6.502;2022-10-31T00:41:09;12.00;99.90
52555;DHT22;38455;52.710;6.502;2022-10-31T00:43:34;12.10;99.90
52555;DHT22;38455;52.710;6.502;2022-10-31T00:46:00;12.00;99.90
52555;DHT22;38455;52.710;6.502;2022-10-31T00:48:26;12.10;99.90
52555;DHT22;38455;52.710;6.502;2022-10-31T00:50:51;12.20;99.90
52555;DHT22;38455;52.710;6.502;2022-10-31T00:53:17;12.20;99.90
52555;DHT22;38455;52.710;6.502;2022-10-31T00:55:42;12.10;99.90
52555;DHT22;38455;52.710;6.502;2022-10-31T00:58:08;12.10;99.90
52555;DHT22;38455;52.710;6.502;2022-10-31T01:00:34;12.00;99.90
52555;DHT22;38455;52.710;6.502;2022-10-31T01:02:59;12.10;99.90
52555;DHT22;38455;52.710;6.502;2022-10-31T01:05:25;12.10;99.90
52555;DHT22;38455;52.710;6.502;2022-10-31T01:07:50;12.10;99.90
52555;DHT22;38455;52.710;6.502;2022-10-31T01:10:16;12.00;99.90
52555;DHT22;38455;52.710;6.502;2022-10-31T01:12:46;12.00;99.90
52555;DHT22;38455;52.710;6.502;2022-10-31T01:15:13;12.00;99.90
52555;DHT22;38455;52.710;6.502;2022-10-31T01:17:39;12.00;99.90
52555;DHT22;38455;52.710;6.502;2022-10-31T01:20:07;12.00;99.90
52555;DHT22;38455;52.710;6.502;2022-10-31T01:22:33;12.00;99.90
52555;DHT22;38455;52.710;6.502;2022-10-31T01:24:58;12.10;99.90
52555;DHT22;38455;52.710;6.502;2022-10-31T01:27:24;12.10;99.90
52555;DHT22;38455;52.710;6.502;2022-10-31T01:29:50;12.10;99.90
52555;DHT22;38455;52.710;6.502;2022-10-31T01:32:15;12.10;99.90
52555;DHT22;38455;52.710;6.502;2022-10-31T01:34:41;12.10;99.90
52555;DHT22;38455;52.710;6.502;2022-10-31T01:37:06;12.10;99.90
52555;DHT22;38455;52.710;6.502;2022-10-31T01:39:32;12.00;99.90
52555;DHT22;38455;52.710;6.502;2022-10-31T01:41:58;12.00;99.90
52555;DHT22;38455;52.710;6.502;2022-10-31T01:47:03;12.00;99.90
52555;DHT22;38455;52.710;6.502;2022-10-31T01:49:49;11.90;99.90
52555;DHT22;38455;52.710;6.502;2022-10-31T01:54:56;11.80;99.90
52555;DHT22;38455;52.710;6.502;2022-10-31T01:57:23;11.70;99.90
52555;DHT22;38455;52.710;6.502;2022-10-31T01:59:53;11.60;99.90
52555;DHT22;38455;52.710;6.502;2022-10-31T02:02:20;11.60;99.90
52555;DHT22;38455;52.710;6.502;2022-10-31T02:04:48;11.50;99.90
52555;DHT22;38455;52.710;6.502;2022-10-31T02:07:18;11.50;99.90
52555;DHT22;38455;52.710;6.502;2022-10-31T02:09:46;11.40;99.90
52555;DHT22;38455;52.710;6.502;2022-10-31T02:12:13;11.40;99.90
52555;DHT22;38455;52.710;6.502;2022-10-31T02:14:39;11.40;99.90
52555;DHT22;38455;52.710;6.502;2022-10-31T02:17:06;11.30;99.90
52555;DHT22;38455;52.710;6.502;2022-10-31T02:19:52;11.20;99.90
52555;DHT22;38455;52.710;6.502;2022-10-31T02:33:53;11.10;99.90
52555;DHT22;38455;52.710;6.502;2022-10-31T02:39:02;11.00;99.90
52555;DHT22;38455;52.710;6.502;2022-10-31T02:41:37;10.90;99.90
52555;DHT22;38455;52.710;6.502;2022-10-31T02:46:59;10.90;99.90
52555;DHT22;38455;52.710;6.502;2022-10-31T02:52:21;10.80;99.90
52555;DHT22;38455;52.710;6.502;2022-10-31T02:54:47;10.80;99.90
52555;DHT22;38455;52.710;6.502;2022-10-31T02:57:15;10.70;99.90
52555;DHT22;38455;52.710;6.502;2022-10-31T02:59:47;10.70;99.90
52555;DHT22;38455;52.710;6.502;2022-10-31T03:02:37;10.70;99.90
52555;DHT22;38455;52.710;6.502;2022-10-31T03:08:08;10.50;99.90
52555;DHT22;38455;52.710;6.502;2022-10-31T03:10:43;10.50;99.90
52555;DHT22;38455;52.710;6.502;2022-10-31T03:18:40;10.50;99.90
52555;DHT22;38455;52.710;6.502;2022-10-31T03:24:08;10.40;99.90
52555;DHT22;38455;52.710;6.502;2022-10-31T03:26:38;10.40;99.90
52555;DHT22;38455;52.710;6.502;2022-10-31T03:29:10;10.40;99.90
52555;DHT22;38455;52.710;6.502;2022-10-31T03:31:45;10.40;99.90
52555;DHT22;38455;52.710;6.502;2022-10-31T03:34:14;10.40;99.90
52555;DHT22;38455;52.710;6.502;2022-10-31T03:36:41;10.30;99.90
52555;DHT22;38455;52.710;6.502;2022-10-31T03:39:12;10.30;99.90
52555;DHT22;38455;52.710;6.502;2022-10-31T03:41:42;10.30;99.90
52555;DHT22;38455;52.710;6.502;2022-10-31T03:44:12;10.20;99.90
52555;DHT22;38455;52.710;6.502;2022-10-31T03:46:38;10.20;99.90
52555;DHT22;38455;52.710;6.502;2022-10-31T03:49:04;10.10;99.90
52555;DHT22;38455;52.710;6.502;2022-10-31T03:51:45;10.10;99.90
52555;DHT22;38455;52.710;6.502;2022-10-31T03:54:25;10.00;99.90
52555;DHT22;38455;52.710;6.502;2022-10-31T03:57:09;10.00;99.90
52555;DHT22;38455;52.710;6.502;2022-10-31T03:59:43;10.00;99.90
52555;DHT22;38455;52.710;6.502;2022-10-31T04:02:16;10.00;99.90
52555;DHT22;38455;52.710;6.502;2022-10-31T04:04:44;10.00;99.90
52555;DHT22;38455;52.710;6.502;2022-10-31T04:07:10;10.00;99.90
52555;DHT22;38455;52.710;6.502;2022-10-31T04:09:39;9.90;99.90
52555;DHT22;38455;52.710;6.502;2022-10-31T04:12:08;9.80;99.90
52555;DHT22;38455;52.710;6.502;2022-10-31T04:14:36;9.80;99.90
52555;DHT22;38455;52.710;6.502;2022-10-31T04:17:05;9.80;99.90
52555;DHT22;38455;52.710;6.502;2022-10-31T04:19:33;9.70;99.90
52555;DHT22;38455;52.710;6.502;2022-10-31T04:21:58;9.70;99.90
52555;DHT22;38455;52.710;6.502;2022-10-31T04:24:24;9.60;99.90
52555;DHT22;38455;52.710;6.502;2022-10-31T04:26:49;9.60;99.90
52555;DHT22;38455;52.710;6.502;2022-10-31T04:29:15;9.60;99.90
52555;DHT22;38455;52.710;6.502;2022-10-31T04:31:41;9.50;99.90
52555;DHT22;38455;52.710;6.502;2022-10-31T04:34:06;9.60;99.90
52555;DHT22;38455;52.710;6.502;2022-10-31T04:36:32;9.60;99.90
52555;DHT22;38455;52.710;6.502;2022-10-31T04:38:58;9.50;99.90
52555;DHT22;38455;52.710;6.502;2022-10-31T04:41:24;9.50;99.90
52555;DHT22;38455;52.710;6.502;2022-10-31T04:43:49;9.50;99.90
52555;DHT22;38455;52.710;6.502;2022-10-31T04:46:15;9.50;99.90
52555;DHT22;38455;52.710;6.502;2022-10-31T04:48:41;9.50;99.90
52555;DHT22;38455;52.710;6.502;2022-10-31T04:51:06;9.40;99.90
52555;DHT22;38455;52.710;6.502;2022-10-31T04:53:32;9.40;99.90
52555;DHT22;38455;52.710;6.502;2022-10-31T04:55:58;9.40;99.90
52555;DHT22;38455;52.710;6.502;2022-10-31T04:58:25;9.40;99.90
52555;DHT22;38455;52.710;6.502;2022-10-31T05:00:54;9.40;99.90
52555;DHT22;38455;52.710;6.502;2022-10-31T05:03:20;9.30;99.90
52555;DHT22;38455;52.710;6.502;2022-10-31T05:05:46;9.20;99.90
52555;DHT22;38455;52.710;6.502;2022-10-31T05:08:12;9.30;99.90
52555;DHT22;38455;52.710;6.502;2022-10-31T05:10:37;9.30;99.90
52555;DHT22;38455;52.710;6.502;2022-10-31T05:13:03;9.20;99.90
52555;DHT22;38455;52.710;6.502;2022-10-31T05:15:29;9.30;99.90
52555;DHT22;38455;52.710;6.502;2022-10-31T05:17:56;9.30;99.90
52555;DHT22;38455;52.710;6.502;2022-10-31T05:20:25;9.30;99.90
52555;DHT22;38455;52.710;6.502;2022-10-31T05:22:52;9.20;99.90
52555;DHT22;38455;52.710;6.502;2022-10-31T05:25:21;9.30;99.90
52555;DHT22;38455;52.710;6.502;2022-10-31T05:27:48;9.30;99.90
52555;DHT22;38455;52.710;6.502;2022-10-31T05:30:17;9.30;99.90
52555;DHT22;38455;52.710;6.502;2022-10-31T05:32:45;9.30;99.90
52555;DHT22;38455;52.710;6.502;2022-10-31T05:35:14;9.30;99.90
52555;DHT22;38455;52.710;6.502;2022-10-31T05:37:40;9.30;99.90
52555;DHT22;38455;52.710;6.502;2022-10-31T05:40:08;9.30;99.90
52555;DHT22;38455;52.710;6.502;2022-10-31T05:42:34;9.30;99.90
52555;DHT22;38455;52.710;6.502;2022-10-31T05:45:00;9.40;99.90
52555;DHT22;38455;52.710;6.502;2022-10-31T05:47:25;9.40;99.90
52555;DHT22;38455;52.710;6.502;2022-10-31T05:49:51;9.40;99.90
52555;DHT22;38455;52.710;6.502;2022-10-31T05:52:17;9.30;99.90
52555;DHT22;38455;52.710;6.502;2022-10-31T05:54:43;9.30;99.90
52555;DHT22;38455;52.710;6.502;2022-10-31T05:57:08;9.20;99.90
52555;DHT22;38455;52.710;6.502;2022-10-31T05:59:34;9.20;99.90
52555;DHT22;38455;52.710;6.502;2022-10-31T06:02:00;9.30;99.90
52555;DHT22;38455;52.710;6.502;2022-10-31T06:04:25;9.20;99.90
52555;DHT22;38455;52.710;6.502;2022-10-31T06:06:51;9.20;99.90
52555;DHT22;38455;52.710;6.502;2022-10-31T06:09:16;9.20;99.90
52555;DHT22;38455;52.710;6.502;2022-10-31T06:11:42;9.20;99.90
52555;DHT22;38455;52.710;6.502;2022-10-31T06:14:07;9.10;99.90
52555;DHT22;38455;52.710;6.502;2022-10-31T06:16:33;9.00;99.90
52555;DHT22;38455;52.710;6.502;2022-10-31T06:18:59;9.00;99.90
52555;DHT22;38455;52.710;6.502;2022-10-31T06:21:24;8.90;99.90
52555;DHT22;38455;52.710;6.502;2022-10-31T06:23:50;8.90;99.90
52555;DHT22;38455;52.710;6.502;2022-10-31T06:26:16;8.80;99.90
52555;DHT22;38455;52.710;6.502;2022-10-31T06:28:42;8.80;99.90
52555;DHT22;38455;52.710;6.502;2022-10-31T06:31:07;8.80;99.90
52555;DHT22;38455;52.710;6.502;2022-10-31T06:33:34;8.80;99.90
52555;DHT22;38455;52.710;6.502;2022-10-31T06:36:00;8.80;99.90
52555;DHT22;38455;52.710;6.502;2022-10-31T06:38:26;8.70;99.90
52555;DHT22;38455;52.710;6.502;2022-10-31T06:40:53;8.70;99.90
52555;DHT22;38455;52.710;6.502;2022-10-31T06:43:19;8.70;99.90
52555;DHT22;38455;52.710;6.502;2022-10-31T06:45:44;8.70;99.90
52555;DHT22;38455;52.710;6.502;2022-10-31T06:48:10;8.80;99.90
52555;DHT22;38455;52.710;6.502;2022-10-31T06:50:36;8.90;99.90
52555;DHT22;38455;52.710;6.502;2022-10-31T06:53:01;8.90;99.90
52555;DHT22;38455;52.710;6.502;2022-10-31T06:55:27;8.90;99.90
52555;DHT22;38455;52.710;6.502;2022-10-31T06:57:55;8.90;99.90
52555;DHT22;38455;52.710;6.502;2022-10-31T07:00:21;8.90;99.90
52555;DHT22;38455;52.710;6.502;2022-10-31T07:02:54;8.80;99.90
52555;DHT22;38455;52.710;6.502;2022-10-31T07:05:20;8.80;99.90
52555;DHT22;38455;52.710;6.502;2022-10-31T07:07:51;8.90;99.90
52555;DHT22;38455;52.710;6.502;2022-10-31T07:10:17;9.00;99.90
52555;DHT22;38455;52.710;6.502;2022-10-31T07:12:42;9.10;99.90
52555;DHT22;38455;52.710;6.502;2022-10-31T07:15:08;9.20;99.90
52555;DHT22;38455;52.710;6.502;2022-10-31T07:17:34;9.30;99.90
52555;DHT22;38455;52.710;6.502;2022-10-31T07:20:00;9.30;99.90
52555;DHT22;38455;52.710;6.502;2022-10-31T07:22:32;9.30;99.90
52555;DHT22;38455;52.710;6.502;2022-10-31T07:24:58;9.20;99.90
52555;DHT22;38455;52.710;6.502;2022-10-31T07:27:23;9.30;99.90
52555;DHT22;38455;52.710;6.502;2022-10-31T07:29:49;9.30;99.90
52555;DHT22;38455;52.710;6.502;2022-10-31T07:32:14;9.40;99.90
52555;DHT22;38455;52.710;6.502;2022-10-31T07:34:40;9.50;99.90
52555;DHT22;38455;52.710;6.502;2022-10-31T07:37:05;9.50;99.90
52555;DHT22;38455;52.710;6.502;2022-10-31T07:39:31;9.60;99.90
52555;DHT22;38455;52.710;6.502;2022-10-31T07:41:58;9.60;99.90
52555;DHT22;38455;52.710;6.502;2022-10-31T07:44:24;9.70;99.90
52555;DHT22;38455;52.710;6.502;2022-10-31T07:46:49;9.90;99.90
52555;DHT22;38455;52.710;6.502;2022-10-31T07:49:15;9.90;99.90
52555;DHT22;38455;52.710;6.502;2022-10-31T07:51:40;10.00;99.90
52555;DHT22;38455;52.710;6.502;2022-10-31T07:54:06;10.10;99.90
52555;DHT22;38455;52.710;6.502;2022-10-31T07:56:31;10.10;99.90
52555;DHT22;38455;52.710;6.502;2022-10-31T07:58:57;10.20;99.90
52555;DHT22;38455;52.710;6.502;2022-10-31T08:01:23;10.30;99.90
52555;DHT22;38455;52.710;6.502;2022-10-31T08:03:48;10.30;99.90
52555;DHT22;38455;52.710;6.502;2022-10-31T08:06:14;10.40;99.90
52555;DHT22;38455;52.710;6.502;2022-10-31T08:08:39;10.40;99.90
52555;DHT22;38455;52.710;6.502;2022-10-31T08:11:05;10.40;99.90
52555;DHT22;38455;52.710;6.502;2022-10-31T08:13:31;10.50;99.90
52555;DHT22;38455;52.710;6.502;2022-10-31T08:15:57;10.50;99.90
52555;DHT22;38455;52.710;6.502;2022-10-31T08:18:29;10.70;99.90
52555;DHT22;38455;52.710;6.502;2022-10-31T08:20:55;10.80;99.90
52555;DHT22;38455;52.710;6.502;2022-10-31T08:23:21;11.00;99.90
52555;DHT22;38455;52.710;6.502;2022-10-31T08:25:46;11.10;99.90
52555;DHT22;38455;52.710;6.502;2022-10-31T08:28:15;11.20;99.90
52555;DHT22;38455;52.710;6.502;2022-10-31T08:30:41;11.20;99.90
52555;DHT22;38455;52.710;6.502;2022-10-31T08:33:15;11.20;99.90
52555;DHT22;38455;52.710;6.502;2022-10-31T08:35:42;11.30;99.90
52555;DHT22;38455;52.710;6.502;2022-10-31T08:38:09;11.50;99.90
52555;DHT22;38455;52.710;6.502;2022-10-31T08:40:35;11.40;99.90
52555;DHT22;38455;52.710;6.502;2022-10-31T08:43:03;11.40;99.90
52555;DHT22;38455;52.710;6.502;2022-10-31T08:45:30;11.50;99.90
52555;DHT22;38455;52.710;6.502;2022-10-31T08:48:01;11.70;99.90
52555;DHT22;38455;52.710;6.502;2022-10-31T08:50:28;11.80;99.90
52555;DHT22;38455;52.710;6.502;2022-10-31T08:53:03;11.80;99.90
52555;DHT22;38455;52.710;6.502;2022-10-31T08:55:29;11.90;99.90
52555;DHT22;38455;52.710;6.502;2022-10-31T08:57:58;12.00;99.90
52555;DHT22;38455;52.710;6.502;2022-10-31T09:00:24;12.20;99.90
52555;DHT22;38455;52.710;6.502;2022-10-31T09:03:01;12.20;99.90
52555;DHT22;38455;52.710;6.502;2022-10-31T09:05:27;12.30;99.90
52555;DHT22;38455;52.710;6.502;2022-10-31T09:07:57;12.40;99.90
52555;DHT22;38455;52.710;6.502;2022-10-31T09:10:24;12.40;99.90
52555;DHT22;38455;52.710;6.502;2022-10-31T09:13:05;12.70;99.90
52555;DHT22;38455;52.710;6.502;2022-10-31T09:15:35;13.00;99.90
52555;DHT22;38455;52.710;6.502;2022-10-31T09:18:02;13.00;99.90
52555;DHT22;38455;52.710;6.502;2022-10-31T09:20:28;13.00;99.90
52555;DHT22;38455;52.710;6.502;2022-10-31T09:23:01;12.90;99.90
52555;DHT22;38455;52.710;6.502;2022-10-31T09:25:27;12.90;99.90
52555;DHT22;38455;52.710;6.502;2022-10-31T09:28:00;13.10;99.90
52555;DHT22;38455;52.710;6.502;2022-10-31T09:30:27;13.30;99.90
52555;DHT22;38455;52.710;6.502;2022-10-31T09:33:04;13.70;99.90
52555;DHT22;38455;52.710;6.502;2022-10-31T09:35:30;14.00;99.90
52555;DHT22;38455;52.710;6.502;2022-10-31T09:38:00;14.20;99.90
52555;DHT22;38455;52.710;6.502;2022-10-31T09:40:36;14.20;99.90
52555;DHT22;38455;52.710;6.502;2022-10-31T09:49:23;14.40;99.90
52555;DHT22;38455;52.710;6.502;2022-10-31T09:51:36;14.50;99.90
52555;DHT22;38455;52.710;6.502;2022-10-31T09:54:20;14.40;99.90
52555;DHT22;38455;52.710;6.502;2022-10-31T09:56:46;14.40;99.90
52555;DHT22;38455;52.710;6.502;2022-10-31T09:59:21;14.60;99.90
52555;DHT22;38455;52.710;6.502;2022-10-31T10:01:57;15.00;99.90
52555;DHT22;38455;52.710;6.502;2022-10-31T10:10:59;16.70;99.90
52555;DHT22;38455;52.710;6.502;2022-10-31T10:13:36;16.50;99.90
52555;DHT22;38455;52.710;6.502;2022-10-31T10:18:59;16.00;99.90
52555;DHT22;38455;52.710;6.502;2022-10-31T10:23:55;16.30;99.90
52555;DHT22;38455;52.710;6.502;2022-10-31T10:26:30;16.40;99.90
52555;DHT22;38455;52.710;6.502;2022-10-31T10:29:03;16.60;99.90
52555;DHT22;38455;52.710;6.502;2022-10-31T10:31:38;16.90;99.90
52555;DHT22;38455;52.710;6.502;2022-10-31T10:34:18;17.10;99.90
52555;DHT22;38455;52.710;6.502;2022-10-31T10:36:56;17.20;99.90
52555;DHT22;38455;52.710;6.502;2022-10-31T10:39:32;17.10;99.90
52555;DHT22;38455;52.710;6.502;2022-10-31T10:41:59;16.70;99.90
52555;DHT22;38455;52.710;6.502;2022-10-31T10:44:46;16.70;99.90
52555;DHT22;38455;52.710;6.502;2022-10-31T10:47:43;16.60;99.90
52555;DHT22;38455;52.710;6.502;2022-10-31T10:50:31;16.70;99.90
52555;DHT22;38455;52.710;6.502;2022-10-31T10:56:25;16.60;99.90
52555;DHT22;38455;52.710;6.502;2022-10-31T10:58:56;16.40;99.90
52555;DHT22;38455;52.710;6.502;2022-10-31T11:01:23;16.50;99.90
52555;DHT22;38455;52.710;6.502;2022-10-31T11:03:49;16.30;99.90
52555;DHT22;38455;52.710;6.502;2022-10-31T11:06:24;16.20;99.90
52555;DHT22;38455;52.710;6.502;2022-10-31T11:08:53;16.10;99.90
52555;DHT22;38455;52.710;6.502;2022-10-31T11:11:31;15.90;99.90
52555;DHT22;38455;52.710;6.502;2022-10-31T11:14:03;15.80;99.90
52555;DHT22;38455;52.710;6.502;2022-10-31T11:16:35;15.70;99.90
52555;DHT22;38455;52.710;6.502;2022-10-31T11:19:28;15.80;99.90
52555;DHT22;38455;52.710;6.502;2022-10-31T11:21:54;15.70;99.90
52555;DHT22;38455;52.710;6.502;2022-10-31T11:24:24;15.70;99.90
52555;DHT22;38455;52.710;6.502;2022-10-31T11:27:08;15.70;99.90
52555;DHT22;38455;52.710;6.502;2022-10-31T11:29:34;15.70;99.90
52555;DHT22;38455;52.710;6.502;2022-10-31T11:32:02;15.70;99.90
52555;DHT22;38455;52.710;6.502;2022-10-31T11:34:33;15.70;99.90
52555;DHT22;38455;52.710;6.502;2022-10-31T11:39:44;16.20;99.90
52555;DHT22;38455;52.710;6.502;2022-10-31T11:42:10;16.30;99.90
52555;DHT22;38455;52.710;6.502;2022-10-31T11:44:41;16.60;99.90
52555;DHT22;38455;52.710;6.502;2022-10-31T11:47:13;16.70;99.90
52555;DHT22;38455;52.710;6.502;2022-10-31T11:49:41;16.70;99.90
52555;DHT22;38455;52.710;6.502;2022-10-31T11:54:49;16.60;99.90
52555;DHT22;38455;52.710;6.502;2022-10-31T11:57:33;16.50;99.90
52555;DHT22;38455;52.710;6.502;2022-10-31T12:02:46;16.50;99.90
52555;DHT22;38455;52.710;6.502;2022-10-31T12:05:18;16.40;99.90
52555;DHT22;38455;52.710;6.502;2022-10-31T12:07:47;16.40;99.90
52555;DHT22;38455;52.710;6.502;2022-10-31T12:10:14;16.30;99.90
52555;DHT22;38455;52.710;6.502;2022-10-31T12:12:49;16.30;99.90
52555;DHT22;38455;52.710;6.502;2022-10-31T12:15:34;16.20;99.90
52555;DHT22;38455;52.710;6.502;2022-10-31T12:18:24;16.10;99.90
52555;DHT22;38455;52.710;6.502;2022-10-31T12:40:24;16.20;99.90
52555;DHT22;38455;52.710;6.502;2022-10-31T12:45:55;16.20;99.90
52555;DHT22;38455;52.710;6.502;2022-10-31T12:51:47;16.40;99.90
52555;DHT22;38455;52.710;6.502;2022-10-31T12:54:23;16.40;99.90
52555;DHT22;38455;52.710;6.502;2022-10-31T12:59:40;16.50;99.90
52555;DHT22;38455;52.710;6.502;2022-10-31T13:05:03;16.60;99.90
52555;DHT22;38455;52.710;6.502;2022-10-31T13:07:35;16.70;99.90
52555;DHT22;38455;52.710;6.502;2022-10-31T13:12:54;16.80;99.90
52555;DHT22;38455;52.710;6.502;2022-10-31T13:15:25;16.80;99.90
52555;DHT22;38455;52.710;6.502;2022-10-31T13:17:55;16.80;99.90
52555;DHT22;38455;52.710;6.502;2022-10-31T13:23:26;16.70;99.90
52555;DHT22;38455;52.710;6.502;2022-10-31T13:25:53;16.70;99.90
52555;DHT22;38455;52.710;6.502;2022-10-31T13:28:34;16.70;99.90
52555;DHT22;38455;52.710;6.502;2022-10-31T13:31:01;16.60;99.90
52555;DHT22;38455;52.710;6.502;2022-10-31T13:33:37;16.60;99.90
52555;DHT22;38455;52.710;6.502;2022-10-31T13:41:48;16.60;99.90
52555;DHT22;38455;52.710;6.502;2022-10-31T13:46:52;16.50;99.90
52555;DHT22;38455;52.710;6.502;2022-10-31T13:54:38;16.60;99.90
52555;DHT22;38455;52.710;6.502;2022-10-31T13:59:58;16.60;99.90
52555;DHT22;38455;52.710;6.502;2022-10-31T14:02:30;16.60;99.90
52555;DHT22;38455;52.710;6.502;2022-10-31T14:04:59;16.50;99.90
52555;DHT22;38455;52.710;6.502;2022-10-31T14:07:26;16.50;99.90
52555;DHT22;38455;52.710;6.502;2022-10-31T14:10:25;16.60;99.90
52555;DHT22;38455;52.710;6.502;2022-10-31T14:12:51;16.60;99.90
52555;DHT22;38455;52.710;6.502;2022-10-31T14:15:26;16.60;99.90
52555;DHT22;38455;52.710;6.502;2022-10-31T14:17:55;16.60;99.90
52555;DHT22;38455;52.710;6.502;2022-10-31T14:20:40;16.60;99.90
52555;DHT22;38455;52.710;6.502;2022-10-31T14:28:34;16.50;99.90
52555;DHT22;38455;52.710;6.502;2022-10-31T14:31:00;16.40;99.90
52555;DHT22;38455;52.710;6.502;2022-10-31T14:33:30;16.40;99.90
52555;DHT22;38455;52.710;6.502;2022-10-31T14:36:09;16.40;99.90
52555;DHT22;38455;52.710;6.502;2022-10-31T14:47:00;16.20;99.90
52555;DHT22;38455;52.710;6.502;2022-10-31T14:51:57;16.10;99.90
52555;DHT22;38455;52.710;6.502;2022-10-31T14:54:37;16.10;99.90
52555;DHT22;38455;52.710;6.502;2022-10-31T14:57:07;16.10;99.90
52555;DHT22;38455;52.710;6.502;2022-10-31T14:59:41;16.10;99.90
52555;DHT22;38455;52.710;6.502;2022-10-31T15:02:24;16.10;99.90
52555;DHT22;38455;52.710;6.502;2022-10-31T15:04:51;16.10;99.90
52555;DHT22;38455;52.710;6.502;2022-10-31T15:07:21;16.00;99.90
52555;DHT22;38455;52.710;6.502;2022-10-31T15:10:25;16.00;99.90
52555;DHT22;38455;52.710;6.502;2022-10-31T15:12:52;15.90;99.90
52555;DHT22;38455;52.710;6.502;2022-10-31T15:15:23;15.80;99.90
52555;DHT22;38455;52.710;6.502;2022-10-31T15:17:59;15.90;99.90
52555;DHT22;38455;52.710;6.502;2022-10-31T15:20:30;15.80;99.90
52555;DHT22;38455;52.710;6.502;2022-10-31T15:22:59;15.80;99.90
52555;DHT22;38455;52.710;6.502;2022-10-31T15:25:28;15.80;99.90
52555;DHT22;38455;52.710;6.502;2022-10-31T15:27:55;15.80;99.90
52555;DHT22;38455;52.710;6.502;2022-10-31T15:30:25;15.70;99.90
52555;DHT22;38455;52.710;6.502;2022-10-31T15:32:52;15.70;99.90
52555;DHT22;38455;52.710;6.502;2022-10-31T15:35:25;15.60;99.90
52555;DHT22;38455;52.710;6.502;2022-10-31T15:37:52;15.60;99.90
52555;DHT22;38455;52.710;6.502;2022-10-31T15:40:19;15.50;99.90
52555;DHT22;38455;52.710;6.502;2022-10-31T15:43:00;15.50;99.90
52555;DHT22;38455;52.710;6.502;2022-10-31T15:45:28;15.40;99.90
52555;DHT22;38455;52.710;6.502;2022-10-31T15:48:16;15.30;99.90
52555;DHT22;38455;52.710;6.502;2022-10-31T15:50:50;15.30;99.90
52555;DHT22;38455;52.710;6.502;2022-10-31T15:53:20;15.20;99.90
52555;DHT22;38455;52.710;6.502;2022-10-31T15:55:59;15.20;99.90
52555;DHT22;38455;52.710;6.502;2022-10-31T15:58:26;15.20;99.90
52555;DHT22;38455;52.710;6.502;2022-10-31T16:01:04;15.10;99.90
52555;DHT22;38455;52.710;6.502;2022-10-31T16:03:32;15.10;99.90
52555;DHT22;38455;52.710;6.502;2022-10-31T16:06:04;15.00;99.90
52555;DHT22;38455;52.710;6.502;2022-10-31T16:10:57;14.90;99.90
52555;DHT22;38455;52.710;6.502;2022-10-31T16:13:53;14.90;99.90
52555;DHT22;38455;52.710;6.502;2022-10-31T16:16:20;14.90;99.90
52555;DHT22;38455;52.710;6.502;2022-10-31T16:18:48;14.90;99.90
52555;DHT22;38455;52.710;6.502;2022-10-31T16:21:15;14.90;99.90
52555;DHT22;38455;52.710;6.502;2022-10-31T16:23:52;14.80;99.90
52555;DHT22;38455;52.710;6.502;2022-10-31T16:26:19;14.90;99.90
52555;DHT22;38455;52.710;6.502;2022-10-31T16:28:55;14.90;99.90
52555;DHT22;38455;52.710;6.502;2022-10-31T16:31:36;14.90;99.90
52555;DHT22;38455;52.710;6.502;2022-10-31T16:34:22;14.90;99.90
52555;DHT22;38455;52.710;6.502;2022-10-31T16:36:48;14.90;99.90
52555;DHT22;38455;52.710;6.502;2022-10-31T16:39:14;14.90;99.90
52555;DHT22;38455;52.710;6.502;2022-10-31T16:41:41;14.90;99.90
52555;DHT22;38455;52.710;6.502;2022-10-31T16:44:26;14.80;99.90
52555;DHT22;38455;52.710;6.502;2022-10-31T16:47:15;14.80;99.90
52555;DHT22;38455;52.710;6.502;2022-10-31T16:49:42;14.80;99.90
52555;DHT22;38455;52.710;6.502;2022-10-31T16:52:07;14.80;99.90
52555;DHT22;38455;52.710;6.502;2022-10-31T16:54:33;14.80;99.90
52555;DHT22;38455;52.710;6.502;2022-10-31T16:56:59;14.70;99.90
52555;DHT22;38455;52.710;6.502;2022-10-31T16:59:26;14.70;99.90
52555;DHT22;38455;52.710;6.502;2022-10-31T17:01:52;14.70;99.90
52555;DHT22;38455;52.710;6.502;2022-10-31T17:04:19;14.70;99.90
52555;DHT22;38455;52.710;6.502;2022-10-31T17:06:45;14.70;99.90
52555;DHT22;38455;52.710;6.502;2022-10-31T17:09:10;14.70;99.90
52555;DHT22;38455;52.710;6.502;2022-10-31T17:11:37;14.70;99.90
52555;DHT22;38455;52.710;6.502;2022-10-31T17:14:04;14.70;99.90
52555;DHT22;38455;52.710;6.502;2022-10-31T17:16:30;14.70;99.90
52555;DHT22;38455;52.710;6.502;2022-10-31T17:18:55;14.70;99.90
52555;DHT22;38455;52.710;6.502;2022-10-31T17:21:22;14.70;99.90
52555;DHT22;38455;52.710;6.502;2022-10-31T17:23:51;14.70;99.90
52555;DHT22;38455;52.710;6.502;2022-10-31T17:26:17;14.70;99.90
52555;DHT22;38455;52.710;6.502;2022-10-31T17:28:43;14.70;99.90
52555;DHT22;38455;52.710;6.502;2022-10-31T17:31:23;14.70;99.90
52555;DHT22;38455;52.710;6.502;2022-10-31T17:33:54;14.80;99.90
52555;DHT22;38455;52.710;6.502;2022-10-31T17:36:20;14.70;99.90
52555;DHT22;38455;52.710;6.502;2022-10-31T17:38:45;14.70;99.90
52555;DHT22;38455;52.710;6.502;2022-10-31T17:41:11;14.70;99.90
52555;DHT22;38455;52.710;6.502;2022-10-31T17:43:37;14.70;99.90
52555;DHT22;38455;52.710;6.502;2022-10-31T17:46:02;14.70;99.90
52555;DHT22;38455;52.710;6.502;2022-10-31T17:48:28;14.70;99.90
52555;DHT22;38455;52.710;6.502;2022-10-31T17:50:58;14.60;99.90
52555;DHT22;38455;52.710;6.502;2022-10-31T17:53:23;14.70;99.90
52555;DHT22;38455;52.710;6.502;2022-10-31T17:55:49;14.70;99.90
52555;DHT22;38455;52.710;6.502;2022-10-31T17:58:15;14.70;99.90
52555;DHT22;38455;52.710;6.502;2022-10-31T18:00:40;14.70;99.90
52555;DHT22;38455;52.710;6.502;2022-10-31T18:03:06;14.70;99.90
52555;DHT22;38455;52.710;6.502;2022-10-31T18:05:32;14.70;99.90
52555;DHT22;38455;52.710;6.502;2022-10-31T18:07:58;14.70;99.90